createdAt,value
2019-03-16T00:01:37.365Z,76.42
2019-03-16T00:04:09.988Z,76.47
2019-03-16T00:06:42.618Z,76.69
2019-03-16T00:09:14.948Z,76.38
2019-03-16T00:11:47.465Z,76.13
2019-03-16T00:14:20.008Z,75.89
2019-03-16T00:16:52.728Z,75.44
2019-03-16T00:19:25.029Z,75.31
2019-03-16T00:21:57.498Z,75.45
2019-03-16T00:24:30.160Z,75.15
2019-03-16T00:27:02.939Z,74.75
2019-03-16T00:29:35.445Z,74.30
2019-03-16T00:32:13.288Z,74.52
2019-03-16T00:34:42.258Z,74.56
2019-03-16T00:37:14.658Z,74.54
2019-03-16T00:39:47.038Z,74.20
2019-03-16T00:42:19.637Z,74.28
2019-03-16T00:44:52.018Z,73.71
2019-03-16T00:47:25.147Z,73.85
2019-03-16T00:49:57.528Z,73.94
2019-03-16T00:52:29.976Z,74.33
2019-03-16T00:55:02.368Z,76.08
2019-03-16T00:57:34.817Z,77.37
2019-03-16T01:00:08.538Z,79.48
2019-03-16T01:02:40.998Z,80.35
2019-03-16T01:05:13.578Z,80.81
2019-03-16T01:07:46.098Z,81.05
2019-03-16T01:10:18.598Z,81.11
2019-03-16T01:12:51.029Z,81.60
2019-03-16T01:15:23.447Z,81.60
2019-03-16T01:17:55.898Z,81.92
2019-03-16T01:20:28.267Z,81.96
2019-03-16T01:22:59.557Z,82.04
2019-03-16T01:25:31.728Z,83.27
2019-03-16T01:28:04.258Z,82.63
2019-03-16T01:30:36.738Z,82.49
2019-03-16T01:33:09.248Z,82.39
2019-03-16T01:35:41.626Z,82.28
2019-03-16T01:38:13.958Z,82.87
2019-03-16T01:40:46.539Z,83.05
2019-03-16T01:43:18.888Z,83.23
2019-03-16T01:45:51.497Z,83.53
2019-03-16T01:48:24.207Z,83.84
2019-03-16T01:50:56.748Z,83.44
2019-03-16T01:53:29.072Z,82.09
2019-03-16T01:56:02.669Z,79.29
2019-03-16T01:58:35.010Z,77.98
2019-03-16T02:01:07.798Z,76.88
2019-03-16T02:03:40.169Z,76.53
2019-03-16T02:06:11.458Z,75.93
2019-03-16T02:08:43.728Z,75.57
2019-03-16T02:11:16.178Z,75.14
2019-03-16T02:13:49.488Z,73.64
2019-03-16T02:16:21.897Z,73.27
2019-03-16T02:18:54.348Z,73.09
2019-03-16T02:21:26.762Z,72.74
2019-03-16T02:23:59.368Z,72.37
2019-03-16T02:26:32.098Z,72.81
2019-03-16T02:29:04.648Z,72.76
2019-03-16T02:31:37.158Z,73.14
2019-03-16T02:34:09.678Z,73.08
2019-03-16T02:36:51.871Z,72.57
2019-03-16T02:39:24.291Z,72.34
2019-03-16T02:41:56.580Z,72.15
2019-03-16T02:44:28.980Z,72.30
2019-03-16T02:47:01.354Z,72.14
2019-03-16T02:49:33.769Z,71.85
2019-03-16T02:52:06.174Z,71.97
2019-03-16T02:54:38.708Z,70.73
2019-03-16T02:57:11.539Z,70.83
2019-03-16T02:59:43.957Z,70.28
2019-03-16T03:02:16.482Z,68.19
2019-03-16T03:04:48.858Z,68.00
2019-03-16T03:07:21.282Z,67.34
2019-03-16T03:09:53.732Z,67.10
2019-03-16T03:12:26.149Z,67.82
2019-03-16T03:14:58.577Z,65.77
2019-03-16T03:17:31.059Z,66.71
2019-03-16T03:20:03.629Z,66.90
2019-03-16T03:22:36.101Z,66.91
2019-03-16T03:25:08.458Z,66.39
2019-03-16T03:27:40.950Z,64.88
2019-03-16T03:30:13.686Z,65.52
2019-03-16T03:32:46.181Z,64.39
2019-03-16T03:35:18.686Z,64.72
2019-03-16T03:37:49.966Z,63.95
2019-03-16T03:40:22.369Z,63.93
2019-03-16T03:42:54.657Z,63.63
2019-03-16T03:45:27.118Z,63.04
2019-03-16T03:47:59.609Z,63.52
2019-03-16T03:50:32.528Z,64.24
2019-03-16T03:53:04.940Z,65.04
2019-03-16T03:55:37.392Z,64.44
2019-03-16T03:58:09.898Z,63.77
2019-03-16T04:00:42.414Z,63.41
2019-03-16T04:03:14.838Z,63.04
2019-03-16T04:05:47.154Z,63.95
2019-03-16T04:08:19.682Z,62.91
2019-03-16T04:10:52.301Z,63.90
2019-03-16T04:13:24.701Z,63.81
2019-03-16T04:15:56.889Z,63.14
2019-03-16T04:18:29.269Z,64.85
2019-03-16T04:21:01.861Z,64.16
2019-03-16T04:23:34.270Z,63.62
2019-03-16T04:26:05.877Z,63.76
2019-03-16T04:28:38.089Z,63.00
2019-03-16T04:31:10.439Z,63.75
2019-03-16T04:33:42.938Z,63.26
2019-03-16T04:36:15.497Z,63.10
2019-03-16T04:38:47.859Z,63.20
2019-03-16T04:41:20.778Z,62.82
2019-03-16T04:43:53.058Z,62.73
2019-03-16T04:46:25.468Z,62.13
2019-03-16T04:48:57.947Z,62.39
2019-03-16T04:51:30.788Z,61.82
2019-03-16T04:54:03.362Z,62.53
2019-03-16T04:56:35.778Z,62.15
2019-03-16T04:59:08.178Z,61.88
2019-03-16T05:01:40.628Z,62.66
2019-03-16T05:04:13.958Z,62.19
2019-03-16T05:06:46.347Z,62.14
2019-03-16T05:09:18.737Z,62.54
2019-03-16T05:11:51.177Z,61.80
2019-03-16T05:14:23.788Z,62.02
2019-03-16T05:16:56.228Z,62.01
2019-03-16T05:19:28.591Z,61.89
2019-03-16T05:22:01.081Z,63.02
2019-03-16T05:24:33.537Z,63.16
2019-03-16T05:27:06.054Z,62.45
2019-03-16T05:29:38.532Z,62.14
2019-03-16T05:32:11.138Z,62.63
2019-03-16T05:34:55.831Z,63.10
2019-03-16T05:37:18.138Z,62.14
2019-03-16T05:39:50.490Z,62.58
2019-03-16T05:42:23.018Z,63.34
2019-03-16T05:44:55.413Z,63.08
2019-03-16T05:47:28.428Z,64.40
2019-03-16T05:50:00.737Z,63.69
2019-03-16T05:52:33.258Z,63.25
2019-03-16T05:55:05.528Z,63.38
2019-03-16T05:57:38.030Z,64.49
2019-03-16T06:00:11.178Z,63.79
2019-03-16T06:02:44.748Z,63.52
2019-03-16T06:05:17.200Z,62.95
2019-03-16T06:07:49.999Z,62.16
2019-03-16T06:10:22.588Z,62.87
2019-03-16T06:12:55.049Z,62.17
2019-03-16T06:15:27.498Z,62.72
2019-03-16T06:17:59.878Z,61.77
2019-03-16T06:20:32.297Z,63.54
2019-03-16T06:23:05.008Z,61.91
2019-03-16T06:25:37.562Z,61.97
2019-03-16T06:28:10.377Z,63.03
2019-03-16T06:30:43.089Z,61.20
2019-03-16T06:33:15.699Z,62.76
2019-03-16T06:35:48.357Z,61.44
2019-03-16T06:38:20.927Z,62.42
2019-03-16T06:40:53.499Z,60.75
2019-03-16T06:43:26.057Z,61.70
2019-03-16T06:45:58.488Z,61.32
2019-03-16T06:48:31.095Z,60.56
2019-03-16T06:51:03.627Z,61.46
2019-03-16T06:53:36.461Z,60.54
2019-03-16T06:56:08.988Z,60.35
2019-03-16T06:58:41.736Z,59.76
2019-03-16T07:01:14.128Z,60.38
2019-03-16T07:03:46.757Z,61.04
2019-03-16T07:06:19.187Z,61.47
2019-03-16T07:08:51.602Z,60.92
2019-03-16T07:11:24.013Z,59.59
2019-03-16T07:13:56.538Z,58.58
2019-03-16T07:16:29.128Z,59.71
2019-03-16T07:19:01.508Z,59.98
2019-03-16T07:21:34.468Z,60.27
2019-03-16T07:24:07.138Z,60.12
2019-03-16T07:26:39.453Z,59.58
2019-03-16T07:29:11.861Z,59.67
2019-03-16T07:31:45.448Z,60.08
2019-03-16T07:34:18.000Z,59.00
2019-03-16T07:36:51.278Z,60.17
2019-03-16T07:39:23.598Z,59.28
2019-03-16T07:41:55.968Z,60.47
2019-03-16T07:44:28.448Z,61.19
2019-03-16T07:47:01.090Z,59.05
2019-03-16T07:49:33.527Z,60.32
2019-03-16T07:52:05.963Z,60.64
2019-03-16T07:54:38.568Z,60.59
2019-03-16T07:57:11.008Z,60.28
2019-03-16T07:59:43.511Z,59.53
2019-03-16T08:02:15.797Z,59.25
2019-03-16T08:04:47.116Z,61.39
2019-03-16T08:07:19.498Z,59.41
2019-03-16T08:09:51.999Z,60.31
2019-03-16T08:12:24.517Z,59.46
2019-03-16T08:14:56.858Z,59.80
2019-03-16T08:17:30.453Z,59.39
2019-03-16T08:20:03.403Z,59.86
2019-03-16T08:22:35.849Z,59.58
2019-03-16T08:25:08.539Z,58.99
2019-03-16T08:27:53.635Z,59.96
2019-03-16T08:30:15.418Z,59.28
2019-03-16T08:32:47.738Z,59.40
2019-03-16T08:35:20.550Z,59.04
2019-03-16T08:37:52.888Z,60.35
2019-03-16T08:40:25.511Z,59.68
2019-03-16T08:42:58.108Z,59.04
2019-03-16T08:45:30.987Z,58.89
2019-03-16T08:48:04.648Z,59.69
2019-03-16T08:50:38.296Z,60.14
2019-03-16T08:53:10.652Z,60.12
2019-03-16T08:55:43.015Z,59.88
2019-03-16T08:58:16.753Z,59.79
2019-03-16T09:00:49.370Z,60.60
2019-03-16T09:03:21.868Z,60.91
2019-03-16T09:05:54.356Z,60.70
2019-03-16T09:08:26.882Z,59.48
2019-03-16T09:10:59.608Z,58.94
2019-03-16T09:13:32.338Z,60.18
2019-03-16T09:16:04.998Z,59.70
2019-03-16T09:18:37.688Z,60.06
2019-03-16T09:21:10.948Z,60.37
2019-03-16T09:23:43.218Z,59.05
2019-03-16T09:26:15.668Z,60.35
2019-03-16T09:28:59.627Z,61.28
2019-03-16T09:31:22.420Z,62.54
2019-03-16T09:33:54.898Z,62.42
2019-03-16T09:36:27.528Z,61.53
2019-03-16T09:39:00.047Z,61.54
2019-03-16T09:41:32.628Z,61.59
2019-03-16T09:44:05.518Z,62.25
2019-03-16T09:46:38.087Z,60.30
2019-03-16T09:49:10.997Z,60.19
2019-03-16T09:51:43.986Z,60.11
2019-03-16T09:54:16.546Z,59.68
2019-03-16T09:57:00.633Z,59.94
2019-03-16T09:59:25.608Z,60.39
2019-03-16T10:01:58.777Z,60.23
2019-03-16T10:04:31.407Z,59.86
2019-03-16T10:07:04.252Z,60.09
2019-03-16T10:09:36.650Z,61.01
2019-03-16T10:12:09.436Z,61.35
2019-03-16T10:14:42.028Z,60.81
2019-03-16T10:17:14.748Z,61.94
2019-03-16T10:19:47.328Z,60.90
2019-03-16T10:22:20.078Z,61.01
2019-03-16T10:24:53.119Z,61.45
2019-03-16T10:27:26.299Z,62.00
2019-03-16T10:29:58.838Z,61.86
2019-03-16T10:32:31.338Z,62.40
2019-03-16T10:35:03.808Z,62.55
2019-03-16T10:37:36.243Z,63.31
2019-03-16T10:40:08.747Z,63.34
2019-03-16T10:42:42.115Z,62.81
2019-03-16T10:45:14.819Z,62.20
2019-03-16T10:47:47.453Z,61.41
2019-03-16T10:50:20.986Z,61.63
2019-03-16T10:52:53.638Z,62.44
2019-03-16T10:55:26.388Z,61.84
2019-03-16T10:58:00.528Z,62.49
2019-03-16T11:00:33.179Z,62.40
2019-03-16T11:03:05.729Z,62.36
2019-03-16T11:05:38.366Z,63.27
2019-03-16T11:08:11.036Z,63.07
2019-03-16T11:10:43.658Z,63.22
2019-03-16T11:13:16.398Z,63.06
2019-03-16T11:15:49.298Z,62.99
2019-03-16T11:18:24.047Z,61.83
2019-03-16T11:20:57.628Z,61.81
2019-03-16T11:23:30.319Z,61.91
2019-03-16T11:26:02.969Z,62.47
2019-03-16T11:28:35.588Z,62.29
2019-03-16T11:31:08.030Z,61.65
2019-03-16T11:33:40.778Z,61.29
2019-03-16T11:36:13.358Z,60.04
2019-03-16T11:38:46.128Z,60.32
2019-03-16T11:41:18.714Z,60.76
2019-03-16T11:43:51.357Z,60.99
2019-03-16T11:46:23.888Z,60.21
2019-03-16T11:48:56.567Z,60.09
2019-03-16T11:51:29.028Z,59.91
2019-03-16T11:54:01.648Z,59.81
2019-03-16T11:56:34.224Z,61.91
2019-03-16T11:59:06.867Z,62.04
2019-03-16T12:01:39.568Z,65.02
2019-03-16T12:04:12.127Z,67.26
2019-03-16T12:06:44.590Z,67.94
2019-03-16T12:09:17.163Z,68.53
2019-03-16T12:11:49.758Z,67.54
2019-03-16T12:14:22.178Z,66.93
2019-03-16T12:16:54.818Z,65.91
2019-03-16T12:19:27.257Z,65.43
2019-03-16T12:21:59.659Z,64.79
2019-03-16T12:24:32.940Z,62.76
2019-03-16T12:27:05.538Z,61.51
2019-03-16T12:29:37.961Z,62.25
2019-03-16T12:32:11.210Z,61.61
2019-03-16T12:34:43.852Z,60.73
2019-03-16T12:37:16.438Z,60.28
2019-03-16T12:39:48.979Z,60.01
2019-03-16T12:42:22.568Z,59.74
2019-03-16T12:44:55.150Z,59.75
2019-03-16T12:47:27.878Z,60.16
2019-03-16T12:50:00.459Z,58.79
2019-03-16T12:52:33.118Z,57.81
2019-03-16T12:55:08.318Z,59.37
2019-03-16T12:57:40.880Z,58.55
2019-03-16T13:00:19.228Z,59.05
2019-03-16T13:02:52.391Z,58.11
2019-03-16T13:05:24.878Z,59.19
2019-03-16T13:07:57.518Z,58.96
2019-03-16T13:10:30.178Z,59.47
2019-03-16T13:13:02.699Z,57.88
2019-03-16T13:15:35.309Z,58.88
2019-03-16T13:18:08.266Z,60.04
2019-03-16T13:20:42.428Z,58.66
2019-03-16T13:23:15.092Z,59.23
2019-03-16T13:25:47.488Z,59.01
2019-03-16T13:28:22.173Z,58.29
2019-03-16T13:30:54.806Z,57.96
2019-03-16T13:33:27.398Z,56.89
2019-03-16T13:36:01.168Z,58.19
2019-03-16T13:38:34.151Z,56.36
2019-03-16T13:41:09.118Z,57.49
2019-03-16T13:43:42.476Z,58.42
2019-03-16T13:46:14.839Z,57.82
2019-03-16T13:48:47.348Z,57.80
2019-03-16T13:51:19.948Z,57.76
2019-03-16T13:53:52.684Z,54.60
2019-03-16T13:56:25.061Z,54.37
2019-03-16T13:58:59.928Z,54.88
2019-03-16T14:01:32.610Z,53.86
2019-03-16T14:04:06.483Z,54.93
2019-03-16T14:06:38.929Z,54.24
2019-03-16T14:09:11.720Z,54.65
2019-03-16T14:11:44.037Z,54.69
2019-03-16T14:14:17.799Z,56.39
2019-03-16T14:16:50.427Z,55.07
2019-03-16T14:19:22.930Z,54.22
2019-03-16T14:21:55.427Z,52.74
2019-03-16T14:24:28.248Z,52.02
2019-03-16T14:27:00.866Z,53.20
2019-03-16T14:29:33.498Z,51.54
2019-03-16T14:32:06.587Z,50.00
2019-03-16T14:34:39.147Z,51.73
2019-03-16T14:37:13.958Z,51.47
2019-03-16T14:39:51.167Z,51.29
2019-03-16T14:42:26.592Z,49.47
2019-03-16T14:45:06.818Z,51.63
2019-03-16T14:47:43.680Z,53.73
2019-03-16T14:50:17.881Z,53.87
2019-03-16T14:52:50.828Z,52.04
2019-03-16T14:55:23.428Z,52.17
2019-03-16T14:57:56.018Z,52.85
2019-03-16T15:00:38.288Z,52.02
2019-03-16T15:03:04.040Z,51.72
2019-03-16T15:05:36.668Z,52.43
2019-03-16T15:08:09.391Z,52.17
2019-03-16T15:10:42.621Z,53.32
2019-03-16T15:13:15.438Z,52.39
2019-03-16T15:15:48.848Z,52.01
2019-03-16T15:18:22.248Z,53.58
2019-03-16T15:20:54.809Z,52.28
2019-03-16T15:23:27.358Z,53.37
2019-03-16T15:25:59.909Z,52.83
2019-03-16T15:28:32.488Z,53.38
2019-03-16T15:31:05.168Z,53.56
2019-03-16T15:33:37.674Z,52.50
2019-03-16T15:36:10.189Z,53.49
2019-03-16T15:38:43.058Z,52.58
2019-03-16T15:41:15.998Z,52.92
2019-03-16T15:43:48.758Z,55.31
2019-03-16T15:46:22.980Z,54.58
2019-03-16T15:48:55.435Z,55.43
2019-03-16T15:51:27.929Z,54.67
2019-03-16T15:54:00.548Z,55.18
2019-03-16T15:56:33.058Z,56.23
2019-03-16T15:59:05.478Z,55.16
2019-03-16T16:01:40.599Z,56.81
2019-03-16T16:04:12.408Z,57.46
2019-03-16T16:06:45.079Z,56.65
2019-03-16T16:09:17.418Z,57.08
2019-03-16T16:11:49.868Z,57.10
2019-03-16T16:14:23.888Z,57.87
2019-03-16T16:16:56.346Z,56.74
2019-03-16T16:19:28.799Z,57.66
2019-03-16T16:22:01.218Z,58.09
2019-03-16T16:24:33.708Z,58.04
2019-03-16T16:27:06.418Z,58.72
2019-03-16T16:29:38.818Z,59.39
2019-03-16T16:32:13.755Z,58.83
2019-03-16T16:34:46.258Z,59.40
2019-03-16T16:37:19.738Z,59.61
2019-03-16T16:39:52.368Z,59.54
2019-03-16T16:42:24.968Z,59.50
2019-03-16T16:44:57.547Z,59.22
2019-03-16T16:47:29.879Z,59.49
2019-03-16T16:50:02.489Z,59.45
2019-03-16T16:52:35.025Z,59.52
2019-03-16T16:55:07.648Z,59.92
2019-03-16T16:57:42.198Z,59.58
2019-03-16T17:00:16.418Z,60.18
2019-03-16T17:02:48.918Z,60.45
2019-03-16T17:05:21.491Z,60.69
2019-03-16T17:07:54.176Z,60.71
2019-03-16T17:10:26.688Z,60.87
2019-03-16T17:12:59.248Z,61.22
2019-03-16T17:15:31.598Z,61.13
2019-03-16T17:18:03.978Z,60.90
2019-03-16T17:20:36.574Z,60.97
2019-03-16T17:23:09.104Z,60.93
2019-03-16T17:25:41.717Z,61.27
2019-03-16T17:28:15.296Z,61.59
2019-03-16T17:30:48.060Z,61.83
2019-03-16T17:33:20.575Z,61.83
2019-03-16T17:35:53.118Z,61.94
2019-03-16T17:38:25.569Z,62.06
2019-03-16T17:40:58.210Z,62.37
2019-03-16T17:43:30.468Z,62.63
2019-03-16T17:46:02.947Z,62.92
2019-03-16T17:48:35.578Z,63.30
2019-03-16T17:51:08.238Z,63.58
2019-03-16T17:53:40.819Z,63.51
2019-03-16T17:56:13.340Z,63.56
2019-03-16T17:58:45.809Z,63.55
2019-03-16T18:01:18.289Z,63.56
2019-03-16T18:03:51.438Z,63.61
2019-03-16T18:06:23.902Z,63.84
2019-03-16T18:08:56.638Z,64.07
2019-03-16T18:11:29.100Z,64.20
2019-03-16T18:14:01.988Z,64.22
2019-03-16T18:16:34.559Z,64.17
2019-03-16T18:19:07.068Z,64.25
2019-03-16T18:21:39.888Z,64.34
2019-03-16T18:24:12.500Z,64.55
2019-03-16T18:26:44.946Z,64.63
2019-03-16T18:29:17.467Z,64.73
2019-03-16T18:31:49.889Z,64.87
2019-03-16T18:34:21.236Z,65.02
2019-03-16T18:36:53.428Z,64.85
2019-03-16T18:39:25.868Z,65.08
2019-03-16T18:42:04.348Z,65.19
2019-03-16T18:44:41.492Z,65.38
2019-03-16T18:47:15.731Z,65.51
2019-03-16T18:49:48.158Z,65.62
2019-03-16T18:52:20.588Z,65.75
2019-03-16T18:54:52.838Z,65.89
2019-03-16T18:57:25.510Z,66.16
2019-03-16T18:59:57.987Z,66.30
2019-03-16T19:02:31.038Z,66.68
2019-03-16T19:05:03.676Z,66.90
2019-03-16T19:07:36.139Z,67.28
2019-03-16T19:10:09.738Z,67.46
2019-03-16T19:12:42.588Z,67.88
2019-03-16T19:15:15.540Z,68.21
2019-03-16T19:17:58.669Z,68.60
2019-03-16T19:20:22.799Z,69.01
2019-03-16T19:22:55.288Z,69.20
2019-03-16T19:25:27.857Z,69.53
2019-03-16T19:28:00.878Z,69.80
2019-03-16T19:30:34.628Z,69.96
2019-03-16T19:33:07.258Z,70.08
2019-03-16T19:35:39.858Z,70.39
2019-03-16T19:38:13.381Z,70.79
2019-03-16T19:40:46.058Z,71.05
2019-03-16T19:43:18.768Z,71.36
2019-03-16T19:45:51.368Z,71.42
2019-03-16T19:48:24.398Z,71.31
2019-03-16T19:50:57.688Z,71.05
2019-03-16T19:53:30.318Z,70.96
2019-03-16T19:56:03.089Z,70.94
2019-03-16T19:58:35.808Z,70.96
2019-03-16T20:01:08.758Z,71.03
2019-03-16T20:03:42.302Z,70.91
2019-03-16T20:06:25.235Z,70.96
2019-03-16T20:08:49.308Z,70.95
2019-03-16T20:11:21.758Z,70.89
2019-03-16T20:13:54.299Z,70.81
2019-03-16T20:16:26.768Z,71.01
2019-03-16T20:18:59.479Z,71.34
2019-03-16T20:21:32.068Z,71.43
2019-03-16T20:24:04.763Z,71.71
2019-03-16T20:26:37.268Z,71.89
2019-03-16T20:29:09.858Z,72.27
2019-03-16T20:31:46.758Z,72.39
2019-03-16T20:34:16.618Z,72.50
2019-03-16T20:36:49.058Z,72.45
2019-03-16T20:39:21.639Z,72.50
2019-03-16T20:41:54.798Z,72.37
2019-03-16T20:44:27.932Z,72.18
2019-03-16T20:47:00.648Z,72.24
2019-03-16T20:49:33.168Z,72.09
2019-03-16T20:52:05.867Z,71.89
2019-03-16T20:54:38.527Z,72.08
2019-03-16T20:57:11.042Z,72.05
2019-03-16T20:59:45.272Z,72.07
2019-03-16T21:02:17.798Z,72.13
2019-03-16T21:04:50.371Z,71.49
2019-03-16T21:07:22.778Z,71.39
2019-03-16T21:09:55.307Z,70.76
2019-03-16T21:12:27.649Z,70.47
2019-03-16T21:14:59.968Z,70.55
2019-03-16T21:17:32.808Z,70.21
2019-03-16T21:20:06.006Z,69.84
2019-03-16T21:22:39.046Z,69.39
2019-03-16T21:25:13.103Z,69.13
2019-03-16T21:27:47.018Z,69.14
2019-03-16T21:30:19.657Z,68.79
2019-03-16T21:32:52.322Z,68.56
2019-03-16T21:35:24.829Z,68.35
2019-03-16T21:37:57.151Z,68.74
2019-03-16T21:40:30.299Z,68.72
2019-03-16T21:43:03.367Z,68.94
2019-03-16T21:45:36.483Z,69.20
2019-03-16T21:48:26.921Z,69.76
2019-03-16T21:51:02.888Z,69.87
2019-03-16T21:53:36.646Z,70.16
2019-03-16T21:56:10.039Z,70.50
2019-03-16T21:59:01.899Z,70.66
2019-03-16T22:01:34.397Z,70.81
2019-03-16T22:04:07.206Z,70.92
2019-03-16T22:06:40.129Z,70.89
2019-03-16T22:09:12.682Z,70.94
2019-03-16T22:11:45.318Z,70.94
2019-03-16T22:14:17.728Z,70.84
2019-03-16T22:16:50.009Z,70.79
2019-03-16T22:19:22.538Z,70.82
2019-03-16T22:21:58.328Z,70.96
2019-03-16T22:24:31.992Z,71.01
2019-03-16T22:27:04.618Z,70.50
2019-03-16T22:29:37.148Z,70.35
2019-03-16T22:32:10.849Z,70.18
2019-03-16T22:34:43.540Z,70.41
2019-03-16T22:37:16.298Z,70.25
2019-03-16T22:39:51.358Z,70.07
2019-03-16T22:42:23.728Z,70.20
2019-03-16T22:44:56.585Z,70.36
2019-03-16T22:47:30.939Z,70.56
2019-03-16T22:50:03.308Z,70.58
2019-03-16T22:52:35.595Z,70.45
2019-03-16T22:55:08.408Z,70.64
2019-03-16T22:57:43.182Z,70.60
2019-03-16T23:00:16.108Z,70.73
2019-03-16T23:02:50.050Z,71.06
2019-03-16T23:05:22.418Z,71.34
2019-03-16T23:07:55.838Z,71.64
2019-03-16T23:10:28.677Z,72.10
2019-03-16T23:13:13.728Z,72.27
2019-03-16T23:15:46.652Z,72.64
2019-03-16T23:18:19.428Z,73.43
2019-03-16T23:20:51.977Z,73.89
2019-03-16T23:23:34.328Z,73.87
2019-03-16T23:26:08.967Z,74.47
2019-03-16T23:29:05.606Z,75.22
2019-03-16T23:35:49.268Z,75.03
2019-03-16T23:38:23.490Z,75.29
2019-03-16T23:41:15.988Z,75.70
2019-03-16T23:44:07.538Z,76.18
2019-03-16T23:46:40.000Z,76.52
2019-03-16T23:49:13.368Z,76.65
2019-03-16T23:51:45.758Z,76.73
2019-03-16T23:54:18.040Z,76.68
2019-03-16T23:56:50.622Z,76.86
2019-03-16T23:59:23.084Z,76.90
